sensor_id;sensor_type;location;lat;lon;timestamp;P1;durP1;ratioP1;P2;durP2;ratioP2
3637;SDS011;1835;50.068;8.154;2023-03-16T00:00:19;3.43;;;1.90;;
3637;SDS011;1835;50.068;8.154;2023-03-16T00:02:50;5.23;;;3.00;;
3637;SDS011;1835;50.068;8.154;2023-03-16T00:05:18;11.07;;;1.87;;
3637;SDS011;1835;50.068;8.154;2023-03-16T00:07:46;6.47;;;2.10;;
3637;SDS011;1835;50.068;8.154;2023-03-16T00:10:14;2.53;;;1.70;;
3637;SDS011;1835;50.068;8.154;2023-03-16T00:12:42;4.63;;;2.40;;
3637;SDS011;1835;50.068;8.154;2023-03-16T00:15:10;10.17;;;2.10;;
3637;SDS011;1835;50.068;8.154;2023-03-16T00:17:38;2.60;;;2.00;;
3637;SDS011;1835;50.068;8.154;2023-03-16T00:20:09;3.23;;;2.30;;
3637;SDS011;1835;50.068;8.154;2023-03-16T00:22:38;1.80;;;1.70;;
3637;SDS011;1835;50.068;8.154;2023-03-16T00:25:07;2.17;;;1.90;;
3637;SDS011;1835;50.068;8.154;2023-03-16T00:27:37;2.37;;;2.10;;
3637;SDS011;1835;50.068;8.154;2023-03-16T00:30:05;3.30;;;2.57;;
3637;SDS011;1835;50.068;8.154;2023-03-16T00:32:35;2.83;;;2.10;;
3637;SDS011;1835;50.068;8.154;2023-03-16T00:35:05;2.63;;;2.20;;
3637;SDS011;1835;50.068;8.154;2023-03-16T00:37:36;7.80;;;2.10;;
3637;SDS011;1835;50.068;8.154;2023-03-16T00:40:05;2.00;;;1.90;;
3637;SDS011;1835;50.068;8.154;2023-03-16T00:42:37;2.93;;;2.37;;
3637;SDS011;1835;50.068;8.154;2023-03-16T00:45:05;4.30;;;2.20;;
3637;SDS011;1835;50.068;8.154;2023-03-16T00:47:35;4.10;;;2.27;;
3637;SDS011;1835;50.068;8.154;2023-03-16T00:50:04;8.60;;;2.10;;
3637;SDS011;1835;50.068;8.154;2023-03-16T00:52:33;3.50;;;1.47;;
3637;SDS011;1835;50.068;8.154;2023-03-16T00:55:04;2.50;;;2.20;;
3637;SDS011;1835;50.068;8.154;2023-03-16T00:57:33;5.13;;;2.53;;
3637;SDS011;1835;50.068;8.154;2023-03-16T01:00:01;1.47;;;1.47;;
3637;SDS011;1835;50.068;8.154;2023-03-16T01:02:40;5.77;;;2.30;;
3637;SDS011;1835;50.068;8.154;2023-03-16T01:05:10;2.77;;;1.93;;
3637;SDS011;1835;50.068;8.154;2023-03-16T01:07:39;2.97;;;2.10;;
3637;SDS011;1835;50.068;8.154;2023-03-16T01:10:11;2.10;;;1.90;;
3637;SDS011;1835;50.068;8.154;2023-03-16T01:12:40;4.10;;;2.00;;
3637;SDS011;1835;50.068;8.154;2023-03-16T01:15:10;5.10;;;2.23;;
3637;SDS011;1835;50.068;8.154;2023-03-16T01:17:38;2.03;;;1.83;;
3637;SDS011;1835;50.068;8.154;2023-03-16T01:20:07;6.13;;;2.43;;
3637;SDS011;1835;50.068;8.154;2023-03-16T01:22:40;2.60;;;2.40;;
3637;SDS011;1835;50.068;8.154;2023-03-16T01:25:09;4.43;;;2.53;;
3637;SDS011;1835;50.068;8.154;2023-03-16T01:27:39;6.23;;;1.93;;
3637;SDS011;1835;50.068;8.154;2023-03-16T01:30:07;1.90;;;1.80;;
3637;SDS011;1835;50.068;8.154;2023-03-16T01:32:38;2.40;;;2.03;;
3637;SDS011;1835;50.068;8.154;2023-03-16T01:35:07;4.23;;;2.50;;
3637;SDS011;1835;50.068;8.154;2023-03-16T01:37:35;6.30;;;3.77;;
3637;SDS011;1835;50.068;8.154;2023-03-16T01:40:04;6.80;;;2.30;;
3637;SDS011;1835;50.068;8.154;2023-03-16T01:42:41;3.70;;;2.47;;
3637;SDS011;1835;50.068;8.154;2023-03-16T01:48:44;2.47;;;1.90;;
3637;SDS011;1835;50.068;8.154;2023-03-16T01:51:20;6.43;;;2.23;;
3637;SDS011;1835;50.068;8.154;2023-03-16T01:53:54;10.17;;;2.20;;
3637;SDS011;1835;50.068;8.154;2023-03-16T01:56:28;9.70;;;2.90;;
3637;SDS011;1835;50.068;8.154;2023-03-16T01:59:03;5.50;;;2.20;;
3637;SDS011;1835;50.068;8.154;2023-03-16T02:01:37;5.63;;;2.03;;
3637;SDS011;1835;50.068;8.154;2023-03-16T02:04:07;6.77;;;2.70;;
3637;SDS011;1835;50.068;8.154;2023-03-16T02:06:49;4.53;;;2.33;;
3637;SDS011;1835;50.068;8.154;2023-03-16T02:09:20;3.13;;;2.00;;
3637;SDS011;1835;50.068;8.154;2023-03-16T02:11:50;7.33;;;2.70;;
3637;SDS011;1835;50.068;8.154;2023-03-16T02:14:21;2.70;;;2.40;;
3637;SDS011;1835;50.068;8.154;2023-03-16T02:16:50;8.53;;;3.27;;
3637;SDS011;1835;50.068;8.154;2023-03-16T02:19:21;3.63;;;1.93;;
3637;SDS011;1835;50.068;8.154;2023-03-16T02:22:03;3.10;;;2.33;;
3637;SDS011;1835;50.068;8.154;2023-03-16T02:24:34;2.50;;;2.30;;
3637;SDS011;1835;50.068;8.154;2023-03-16T02:27:03;2.33;;;2.13;;
3637;SDS011;1835;50.068;8.154;2023-03-16T02:32:33;3.37;;;2.83;;
3637;SDS011;1835;50.068;8.154;2023-03-16T02:35:02;5.70;;;2.97;;
3637;SDS011;1835;50.068;8.154;2023-03-16T02:37:33;2.73;;;2.53;;
3637;SDS011;1835;50.068;8.154;2023-03-16T02:40:12;2.47;;;2.30;;
3637;SDS011;1835;50.068;8.154;2023-03-16T02:42:47;3.47;;;3.10;;
3637;SDS011;1835;50.068;8.154;2023-03-16T02:45:23;4.27;;;2.60;;
3637;SDS011;1835;50.068;8.154;2023-03-16T02:47:54;9.33;;;2.97;;
3637;SDS011;1835;50.068;8.154;2023-03-16T02:50:23;7.23;;;3.53;;
3637;SDS011;1835;50.068;8.154;2023-03-16T02:52:51;4.67;;;2.77;;
3637;SDS011;1835;50.068;8.154;2023-03-16T02:55:19;4.03;;;2.80;;
3637;SDS011;1835;50.068;8.154;2023-03-16T02:57:48;3.53;;;2.83;;
3637;SDS011;1835;50.068;8.154;2023-03-16T03:00:17;3.93;;;3.63;;
3637;SDS011;1835;50.068;8.154;2023-03-16T03:02:48;7.27;;;3.00;;
3637;SDS011;1835;50.068;8.154;2023-03-16T03:05:17;4.60;;;3.67;;
3637;SDS011;1835;50.068;8.154;2023-03-16T03:07:46;4.30;;;2.83;;
3637;SDS011;1835;50.068;8.154;2023-03-16T03:10:14;2.67;;;2.40;;
3637;SDS011;1835;50.068;8.154;2023-03-16T03:12:43;15.70;;;3.50;;
3637;SDS011;1835;50.068;8.154;2023-03-16T03:15:14;5.30;;;3.23;;
3637;SDS011;1835;50.068;8.154;2023-03-16T03:17:43;4.93;;;3.33;;
3637;SDS011;1835;50.068;8.154;2023-03-16T03:20:13;4.77;;;3.30;;
3637;SDS011;1835;50.068;8.154;2023-03-16T03:22:44;4.87;;;3.77;;
3637;SDS011;1835;50.068;8.154;2023-03-16T03:25:15;11.00;;;5.50;;
3637;SDS011;1835;50.068;8.154;2023-03-16T03:27:45;5.67;;;4.17;;
3637;SDS011;1835;50.068;8.154;2023-03-16T03:30:15;4.87;;;3.10;;
3637;SDS011;1835;50.068;8.154;2023-03-16T03:32:45;4.00;;;3.30;;
3637;SDS011;1835;50.068;8.154;2023-03-16T03:35:14;13.20;;;3.97;;
3637;SDS011;1835;50.068;8.154;2023-03-16T03:37:43;6.53;;;3.40;;
3637;SDS011;1835;50.068;8.154;2023-03-16T03:40:12;7.50;;;3.50;;
3637;SDS011;1835;50.068;8.154;2023-03-16T03:42:41;10.93;;;4.33;;
3637;SDS011;1835;50.068;8.154;2023-03-16T03:45:10;6.83;;;4.30;;
3637;SDS011;1835;50.068;8.154;2023-03-16T03:47:40;8.73;;;4.30;;
3637;SDS011;1835;50.068;8.154;2023-03-16T03:50:09;6.30;;;3.97;;
3637;SDS011;1835;50.068;8.154;2023-03-16T03:52:40;9.77;;;5.20;;
3637;SDS011;1835;50.068;8.154;2023-03-16T03:55:08;6.67;;;3.60;;
3637;SDS011;1835;50.068;8.154;2023-03-16T03:57:37;10.27;;;5.20;;
3637;SDS011;1835;50.068;8.154;2023-03-16T04:00:06;8.00;;;4.80;;
3637;SDS011;1835;50.068;8.154;2023-03-16T04:02:36;8.13;;;4.80;;
3637;SDS011;1835;50.068;8.154;2023-03-16T04:05:05;9.90;;;4.07;;
3637;SDS011;1835;50.068;8.154;2023-03-16T04:07:34;14.37;;;6.30;;
3637;SDS011;1835;50.068;8.154;2023-03-16T04:10:04;9.20;;;4.87;;
3637;SDS011;1835;50.068;8.154;2023-03-16T04:12:33;7.17;;;5.03;;
3637;SDS011;1835;50.068;8.154;2023-03-16T04:15:02;13.87;;;6.00;;
3637;SDS011;1835;50.068;8.154;2023-03-16T04:17:30;15.20;;;6.23;;
3637;SDS011;1835;50.068;8.154;2023-03-16T04:19:59;10.53;;;6.20;;
3637;SDS011;1835;50.068;8.154;2023-03-16T04:22:31;13.93;;;6.10;;
3637;SDS011;1835;50.068;8.154;2023-03-16T04:24:59;6.83;;;5.30;;
3637;SDS011;1835;50.068;8.154;2023-03-16T04:27:29;10.60;;;6.13;;
3637;SDS011;1835;50.068;8.154;2023-03-16T04:30:01;13.63;;;6.20;;
3637;SDS011;1835;50.068;8.154;2023-03-16T04:32:31;15.93;;;6.20;;
3637;SDS011;1835;50.068;8.154;2023-03-16T04:35:00;9.70;;;6.43;;
3637;SDS011;1835;50.068;8.154;2023-03-16T04:37:28;12.80;;;6.63;;
3637;SDS011;1835;50.068;8.154;2023-03-16T04:39:56;13.77;;;6.27;;
3637;SDS011;1835;50.068;8.154;2023-03-16T04:42:24;13.13;;;6.60;;
3637;SDS011;1835;50.068;8.154;2023-03-16T04:44:53;14.03;;;6.73;;
3637;SDS011;1835;50.068;8.154;2023-03-16T04:47:21;11.80;;;6.70;;
3637;SDS011;1835;50.068;8.154;2023-03-16T04:49:49;13.40;;;6.33;;
3637;SDS011;1835;50.068;8.154;2023-03-16T04:52:17;12.70;;;6.17;;
3637;SDS011;1835;50.068;8.154;2023-03-16T04:54:46;12.47;;;7.30;;
3637;SDS011;1835;50.068;8.154;2023-03-16T04:57:13;17.83;;;6.57;;
3637;SDS011;1835;50.068;8.154;2023-03-16T04:59:44;12.23;;;6.33;;
3637;SDS011;1835;50.068;8.154;2023-03-16T05:02:13;13.20;;;6.70;;
3637;SDS011;1835;50.068;8.154;2023-03-16T05:04:42;13.53;;;7.40;;
3637;SDS011;1835;50.068;8.154;2023-03-16T05:07:10;13.03;;;6.10;;
3637;SDS011;1835;50.068;8.154;2023-03-16T05:09:38;7.70;;;5.60;;
3637;SDS011;1835;50.068;8.154;2023-03-16T05:12:07;11.63;;;7.67;;
3637;SDS011;1835;50.068;8.154;2023-03-16T05:14:35;11.00;;;5.50;;
3637;SDS011;1835;50.068;8.154;2023-03-16T05:17:04;14.30;;;7.23;;
3637;SDS011;1835;50.068;8.154;2023-03-16T05:19:33;14.37;;;6.77;;
3637;SDS011;1835;50.068;8.154;2023-03-16T05:22:01;14.27;;;6.10;;
3637;SDS011;1835;50.068;8.154;2023-03-16T05:24:29;12.33;;;6.37;;
3637;SDS011;1835;50.068;8.154;2023-03-16T05:26:58;14.03;;;6.37;;
3637;SDS011;1835;50.068;8.154;2023-03-16T05:29:28;19.50;;;7.40;;
3637;SDS011;1835;50.068;8.154;2023-03-16T05:31:57;12.43;;;5.93;;
3637;SDS011;1835;50.068;8.154;2023-03-16T05:34:25;12.40;;;7.10;;
3637;SDS011;1835;50.068;8.154;2023-03-16T05:36:55;16.33;;;6.83;;
3637;SDS011;1835;50.068;8.154;2023-03-16T05:39:23;22.83;;;7.20;;
3637;SDS011;1835;50.068;8.154;2023-03-16T05:41:51;16.73;;;6.60;;
3637;SDS011;1835;50.068;8.154;2023-03-16T05:44:20;11.60;;;5.63;;
3637;SDS011;1835;50.068;8.154;2023-03-16T05:46:48;11.93;;;7.10;;
3637;SDS011;1835;50.068;8.154;2023-03-16T05:49:16;12.00;;;6.77;;
3637;SDS011;1835;50.068;8.154;2023-03-16T05:51:44;14.70;;;7.03;;
3637;SDS011;1835;50.068;8.154;2023-03-16T05:54:13;12.33;;;6.40;;
3637;SDS011;1835;50.068;8.154;2023-03-16T05:56:41;13.87;;;6.77;;
3637;SDS011;1835;50.068;8.154;2023-03-16T05:59:09;11.13;;;5.80;;
3637;SDS011;1835;50.068;8.154;2023-03-16T06:01:37;10.50;;;5.30;;
3637;SDS011;1835;50.068;8.154;2023-03-16T06:04:06;17.67;;;6.33;;
3637;SDS011;1835;50.068;8.154;2023-03-16T06:06:34;15.97;;;7.57;;
3637;SDS011;1835;50.068;8.154;2023-03-16T06:09:02;18.20;;;6.50;;
3637;SDS011;1835;50.068;8.154;2023-03-16T06:11:31;12.33;;;6.13;;
3637;SDS011;1835;50.068;8.154;2023-03-16T06:14:00;18.20;;;5.93;;
3637;SDS011;1835;50.068;8.154;2023-03-16T06:16:28;14.33;;;6.40;;
3637;SDS011;1835;50.068;8.154;2023-03-16T06:18:57;9.73;;;5.30;;
3637;SDS011;1835;50.068;8.154;2023-03-16T06:21:26;9.67;;;5.00;;
3637;SDS011;1835;50.068;8.154;2023-03-16T06:23:54;12.53;;;4.40;;
3637;SDS011;1835;50.068;8.154;2023-03-16T06:26:22;7.57;;;4.40;;
3637;SDS011;1835;50.068;8.154;2023-03-16T06:28:52;5.77;;;4.27;;
3637;SDS011;1835;50.068;8.154;2023-03-16T06:31:20;8.70;;;5.27;;
3637;SDS011;1835;50.068;8.154;2023-03-16T06:33:48;10.50;;;5.07;;
3637;SDS011;1835;50.068;8.154;2023-03-16T06:36:20;9.93;;;5.27;;
3637;SDS011;1835;50.068;8.154;2023-03-16T06:38:49;9.57;;;5.27;;
3637;SDS011;1835;50.068;8.154;2023-03-16T06:41:17;6.23;;;3.80;;
3637;SDS011;1835;50.068;8.154;2023-03-16T06:43:45;7.40;;;4.83;;
3637;SDS011;1835;50.068;8.154;2023-03-16T06:46:14;12.93;;;5.07;;
3637;SDS011;1835;50.068;8.154;2023-03-16T06:48:42;8.93;;;4.93;;
3637;SDS011;1835;50.068;8.154;2023-03-16T06:51:12;13.00;;;4.50;;
3637;SDS011;1835;50.068;8.154;2023-03-16T06:53:42;12.40;;;4.57;;
3637;SDS011;1835;50.068;8.154;2023-03-16T06:56:10;6.37;;;4.20;;
3637;SDS011;1835;50.068;8.154;2023-03-16T06:58:39;7.93;;;4.90;;
3637;SDS011;1835;50.068;8.154;2023-03-16T07:01:08;12.60;;;4.87;;
3637;SDS011;1835;50.068;8.154;2023-03-16T07:03:39;10.13;;;3.30;;
3637;SDS011;1835;50.068;8.154;2023-03-16T07:06:07;9.93;;;5.00;;
3637;SDS011;1835;50.068;8.154;2023-03-16T07:08:35;8.40;;;4.00;;
3637;SDS011;1835;50.068;8.154;2023-03-16T07:11:03;10.27;;;3.80;;
3637;SDS011;1835;50.068;8.154;2023-03-16T07:13:31;7.30;;;4.87;;
3637;SDS011;1835;50.068;8.154;2023-03-16T07:16:00;7.17;;;3.83;;
3637;SDS011;1835;50.068;8.154;2023-03-16T07:18:30;6.47;;;3.60;;
3637;SDS011;1835;50.068;8.154;2023-03-16T07:20:59;5.20;;;3.00;;
3637;SDS011;1835;50.068;8.154;2023-03-16T07:23:28;9.37;;;3.97;;
3637;SDS011;1835;50.068;8.154;2023-03-16T07:25:57;3.70;;;3.10;;
3637;SDS011;1835;50.068;8.154;2023-03-16T07:28:25;6.43;;;3.67;;
3637;SDS011;1835;50.068;8.154;2023-03-16T07:30:54;8.57;;;3.77;;
3637;SDS011;1835;50.068;8.154;2023-03-16T07:33:30;7.00;;;3.30;;
3637;SDS011;1835;50.068;8.154;2023-03-16T07:36:00;8.30;;;3.43;;
3637;SDS011;1835;50.068;8.154;2023-03-16T07:38:30;4.80;;;3.03;;
3637;SDS011;1835;50.068;8.154;2023-03-16T07:40:59;7.60;;;3.70;;
3637;SDS011;1835;50.068;8.154;2023-03-16T07:43:27;6.90;;;3.80;;
3637;SDS011;1835;50.068;8.154;2023-03-16T07:45:55;6.73;;;3.60;;
3637;SDS011;1835;50.068;8.154;2023-03-16T07:48:24;11.60;;;3.90;;
3637;SDS011;1835;50.068;8.154;2023-03-16T07:50:52;6.33;;;3.30;;
3637;SDS011;1835;50.068;8.154;2023-03-16T07:53:21;8.60;;;4.20;;
3637;SDS011;1835;50.068;8.154;2023-03-16T07:55:49;5.20;;;3.60;;
3637;SDS011;1835;50.068;8.154;2023-03-16T07:58:18;13.80;;;3.80;;
3637;SDS011;1835;50.068;8.154;2023-03-16T08:00:46;4.00;;;3.50;;
3637;SDS011;1835;50.068;8.154;2023-03-16T08:03:14;8.30;;;3.73;;
3637;SDS011;1835;50.068;8.154;2023-03-16T08:05:42;7.60;;;3.83;;
3637;SDS011;1835;50.068;8.154;2023-03-16T08:08:10;9.43;;;5.20;;
3637;SDS011;1835;50.068;8.154;2023-03-16T08:10:42;8.70;;;4.60;;
3637;SDS011;1835;50.068;8.154;2023-03-16T08:13:13;7.37;;;4.20;;
3637;SDS011;1835;50.068;8.154;2023-03-16T08:15:44;8.73;;;4.30;;
3637;SDS011;1835;50.068;8.154;2023-03-16T08:18:13;10.13;;;4.70;;
3637;SDS011;1835;50.068;8.154;2023-03-16T08:20:42;8.37;;;4.73;;
3637;SDS011;1835;50.068;8.154;2023-03-16T08:23:10;9.73;;;5.30;;
3637;SDS011;1835;50.068;8.154;2023-03-16T08:25:40;10.47;;;5.03;;
3637;SDS011;1835;50.068;8.154;2023-03-16T08:28:11;21.53;;;4.90;;
3637;SDS011;1835;50.068;8.154;2023-03-16T08:30:43;7.37;;;4.00;;
3637;SDS011;1835;50.068;8.154;2023-03-16T08:33:14;14.53;;;4.70;;
3637;SDS011;1835;50.068;8.154;2023-03-16T08:35:48;9.57;;;4.30;;
3637;SDS011;1835;50.068;8.154;2023-03-16T08:38:16;8.37;;;4.87;;
3637;SDS011;1835;50.068;8.154;2023-03-16T08:40:45;5.30;;;4.20;;
3637;SDS011;1835;50.068;8.154;2023-03-16T08:43:17;7.60;;;4.77;;
3637;SDS011;1835;50.068;8.154;2023-03-16T08:45:45;9.50;;;4.83;;
3637;SDS011;1835;50.068;8.154;2023-03-16T08:48:15;8.77;;;4.13;;
3637;SDS011;1835;50.068;8.154;2023-03-16T08:50:44;9.23;;;5.50;;
3637;SDS011;1835;50.068;8.154;2023-03-16T08:53:13;6.30;;;4.00;;
3637;SDS011;1835;50.068;8.154;2023-03-16T08:55:41;7.50;;;4.27;;
3637;SDS011;1835;50.068;8.154;2023-03-16T08:58:10;8.63;;;4.47;;
3637;SDS011;1835;50.068;8.154;2023-03-16T09:00:40;7.17;;;4.10;;
3637;SDS011;1835;50.068;8.154;2023-03-16T09:03:11;6.53;;;4.10;;
3637;SDS011;1835;50.068;8.154;2023-03-16T09:05:40;6.37;;;4.07;;
3637;SDS011;1835;50.068;8.154;2023-03-16T09:08:08;7.87;;;4.87;;
3637;SDS011;1835;50.068;8.154;2023-03-16T09:10:37;10.87;;;5.43;;
3637;SDS011;1835;50.068;8.154;2023-03-16T09:13:05;8.63;;;4.80;;
3637;SDS011;1835;50.068;8.154;2023-03-16T09:15:35;7.77;;;5.00;;
3637;SDS011;1835;50.068;8.154;2023-03-16T09:18:04;12.10;;;5.87;;
3637;SDS011;1835;50.068;8.154;2023-03-16T09:20:32;8.03;;;4.73;;
3637;SDS011;1835;50.068;8.154;2023-03-16T09:23:01;9.03;;;4.70;;
3637;SDS011;1835;50.068;8.154;2023-03-16T09:25:29;11.97;;;4.97;;
3637;SDS011;1835;50.068;8.154;2023-03-16T09:27:58;7.67;;;4.77;;
3637;SDS011;1835;50.068;8.154;2023-03-16T09:30:26;11.17;;;5.53;;
3637;SDS011;1835;50.068;8.154;2023-03-16T09:32:56;12.30;;;4.60;;
3637;SDS011;1835;50.068;8.154;2023-03-16T09:35:24;5.03;;;3.83;;
3637;SDS011;1835;50.068;8.154;2023-03-16T09:37:53;8.83;;;4.90;;
3637;SDS011;1835;50.068;8.154;2023-03-16T09:40:31;5.27;;;4.00;;
3637;SDS011;1835;50.068;8.154;2023-03-16T09:43:05;7.93;;;4.47;;
3637;SDS011;1835;50.068;8.154;2023-03-16T09:45:48;7.13;;;4.63;;
3637;SDS011;1835;50.068;8.154;2023-03-16T09:48:26;9.67;;;5.00;;
3637;SDS011;1835;50.068;8.154;2023-03-16T09:50:56;8.17;;;4.80;;
3637;SDS011;1835;50.068;8.154;2023-03-16T09:53:27;8.97;;;5.30;;
3637;SDS011;1835;50.068;8.154;2023-03-16T09:55:59;10.33;;;5.67;;
3637;SDS011;1835;50.068;8.154;2023-03-16T09:58:30;10.30;;;5.80;;
3637;SDS011;1835;50.068;8.154;2023-03-16T10:01:01;14.60;;;5.60;;
3637;SDS011;1835;50.068;8.154;2023-03-16T10:03:56;10.33;;;5.40;;
3637;SDS011;1835;50.068;8.154;2023-03-16T10:06:46;10.83;;;5.03;;
3637;SDS011;1835;50.068;8.154;2023-03-16T10:09:24;7.93;;;5.00;;
3637;SDS011;1835;50.068;8.154;2023-03-16T10:12:01;8.13;;;4.90;;
3637;SDS011;1835;50.068;8.154;2023-03-16T10:14:36;10.63;;;5.20;;
3637;SDS011;1835;50.068;8.154;2023-03-16T10:17:09;9.10;;;5.80;;
3637;SDS011;1835;50.068;8.154;2023-03-16T10:19:44;5.60;;;4.30;;
3637;SDS011;1835;50.068;8.154;2023-03-16T10:22:18;9.83;;;5.43;;
3637;SDS011;1835;50.068;8.154;2023-03-16T10:24:56;9.17;;;5.20;;
3637;SDS011;1835;50.068;8.154;2023-03-16T10:27:30;9.20;;;5.67;;
3637;SDS011;1835;50.068;8.154;2023-03-16T10:30:03;11.37;;;6.10;;
3637;SDS011;1835;50.068;8.154;2023-03-16T10:32:45;13.37;;;5.90;;
3637;SDS011;1835;50.068;8.154;2023-03-16T10:35:18;12.43;;;5.97;;
3637;SDS011;1835;50.068;8.154;2023-03-16T10:37:55;6.50;;;5.13;;
3637;SDS011;1835;50.068;8.154;2023-03-16T10:40:24;9.13;;;4.67;;
3637;SDS011;1835;50.068;8.154;2023-03-16T10:42:53;7.20;;;5.50;;
3637;SDS011;1835;50.068;8.154;2023-03-16T10:45:23;8.70;;;5.30;;
3637;SDS011;1835;50.068;8.154;2023-03-16T10:48:04;10.30;;;5.80;;
3637;SDS011;1835;50.068;8.154;2023-03-16T10:50:35;9.10;;;5.30;;
3637;SDS011;1835;50.068;8.154;2023-03-16T10:53:03;10.03;;;5.17;;
3637;SDS011;1835;50.068;8.154;2023-03-16T10:55:41;12.70;;;4.93;;
3637;SDS011;1835;50.068;8.154;2023-03-16T10:58:22;9.60;;;5.10;;
3637;SDS011;1835;50.068;8.154;2023-03-16T11:00:51;10.83;;;5.07;;
3637;SDS011;1835;50.068;8.154;2023-03-16T11:03:20;10.70;;;5.37;;
3637;SDS011;1835;50.068;8.154;2023-03-16T11:05:59;10.60;;;5.27;;
3637;SDS011;1835;50.068;8.154;2023-03-16T11:08:30;9.40;;;5.03;;
3637;SDS011;1835;50.068;8.154;2023-03-16T11:11:06;11.07;;;5.10;;
3637;SDS011;1835;50.068;8.154;2023-03-16T11:13:37;5.07;;;4.10;;
3637;SDS011;1835;50.068;8.154;2023-03-16T11:16:20;9.37;;;4.67;;
3637;SDS011;1835;50.068;8.154;2023-03-16T11:18:53;8.20;;;5.30;;
3637;SDS011;1835;50.068;8.154;2023-03-16T11:21:29;7.63;;;5.37;;
3637;SDS011;1835;50.068;8.154;2023-03-16T11:24:09;6.37;;;4.50;;
3637;SDS011;1835;50.068;8.154;2023-03-16T11:26:44;5.70;;;4.40;;
3637;SDS011;1835;50.068;8.154;2023-03-16T11:29:22;10.80;;;5.27;;
3637;SDS011;1835;50.068;8.154;2023-03-16T11:31:55;5.67;;;4.57;;
3637;SDS011;1835;50.068;8.154;2023-03-16T11:34:28;7.20;;;4.30;;
3637;SDS011;1835;50.068;8.154;2023-03-16T11:37:01;14.10;;;5.00;;
3637;SDS011;1835;50.068;8.154;2023-03-16T11:39:42;6.40;;;3.97;;
3637;SDS011;1835;50.068;8.154;2023-03-16T11:42:26;8.17;;;4.27;;
3637;SDS011;1835;50.068;8.154;2023-03-16T11:44:59;7.33;;;4.47;;
3637;SDS011;1835;50.068;8.154;2023-03-16T11:47:54;8.87;;;5.10;;
3637;SDS011;1835;50.068;8.154;2023-03-16T11:50:34;6.00;;;4.07;;
3637;SDS011;1835;50.068;8.154;2023-03-16T11:53:15;7.93;;;4.30;;
3637;SDS011;1835;50.068;8.154;2023-03-16T11:55:58;7.53;;;3.97;;
3637;SDS011;1835;50.068;8.154;2023-03-16T11:58:45;4.80;;;4.30;;
3637;SDS011;1835;50.068;8.154;2023-03-16T12:01:30;9.67;;;4.70;;
3637;SDS011;1835;50.068;8.154;2023-03-16T12:04:28;4.60;;;3.83;;
3637;SDS011;1835;50.068;8.154;2023-03-16T12:07:12;7.57;;;4.60;;
3637;SDS011;1835;50.068;8.154;2023-03-16T12:09:58;6.13;;;4.00;;
3637;SDS011;1835;50.068;8.154;2023-03-16T12:12:57;9.67;;;4.43;;
3637;SDS011;1835;50.068;8.154;2023-03-16T12:15:37;5.90;;;3.83;;
3637;SDS011;1835;50.068;8.154;2023-03-16T12:18:11;11.13;;;4.83;;
3637;SDS011;1835;50.068;8.154;2023-03-16T12:20:46;10.20;;;4.70;;
3637;SDS011;1835;50.068;8.154;2023-03-16T12:23:20;5.00;;;3.97;;
3637;SDS011;1835;50.068;8.154;2023-03-16T12:25:58;11.30;;;4.07;;
3637;SDS011;1835;50.068;8.154;2023-03-16T12:28:29;6.27;;;4.50;;
3637;SDS011;1835;50.068;8.154;2023-03-16T12:31:01;11.33;;;5.13;;
3637;SDS011;1835;50.068;8.154;2023-03-16T12:33:42;6.47;;;4.63;;
3637;SDS011;1835;50.068;8.154;2023-03-16T12:39:41;8.73;;;4.50;;
3637;SDS011;1835;50.068;8.154;2023-03-16T12:42:49;7.57;;;4.30;;
3637;SDS011;1835;50.068;8.154;2023-03-16T12:45:32;10.40;;;4.60;;
3637;SDS011;1835;50.068;8.154;2023-03-16T12:48:09;10.27;;;4.90;;
3637;SDS011;1835;50.068;8.154;2023-03-16T12:50:48;5.33;;;3.77;;
3637;SDS011;1835;50.068;8.154;2023-03-16T12:53:37;5.37;;;3.30;;
3637;SDS011;1835;50.068;8.154;2023-03-16T12:56:11;5.80;;;4.00;;
3637;SDS011;1835;50.068;8.154;2023-03-16T12:58:43;4.50;;;3.70;;
3637;SDS011;1835;50.068;8.154;2023-03-16T13:01:15;7.60;;;4.40;;
3637;SDS011;1835;50.068;8.154;2023-03-16T13:03:47;3.97;;;3.60;;
3637;SDS011;1835;50.068;8.154;2023-03-16T13:06:17;6.23;;;4.70;;
3637;SDS011;1835;50.068;8.154;2023-03-16T13:08:51;3.93;;;3.00;;
3637;SDS011;1835;50.068;8.154;2023-03-16T13:11:24;3.77;;;3.00;;
3637;SDS011;1835;50.068;8.154;2023-03-16T13:14:05;5.47;;;3.43;;
3637;SDS011;1835;50.068;8.154;2023-03-16T13:16:36;7.50;;;3.20;;
3637;SDS011;1835;50.068;8.154;2023-03-16T13:19:24;7.40;;;4.30;;
3637;SDS011;1835;50.068;8.154;2023-03-16T13:22:01;6.30;;;3.13;;
3637;SDS011;1835;50.068;8.154;2023-03-16T13:24:48;8.70;;;4.00;;
3637;SDS011;1835;50.068;8.154;2023-03-16T13:27:20;6.53;;;3.53;;
3637;SDS011;1835;50.068;8.154;2023-03-16T13:29:53;3.40;;;3.10;;
3637;SDS011;1835;50.068;8.154;2023-03-16T13:32:29;4.00;;;3.00;;
3637;SDS011;1835;50.068;8.154;2023-03-16T13:35:00;8.13;;;3.93;;
3637;SDS011;1835;50.068;8.154;2023-03-16T13:37:31;3.00;;;2.80;;
3637;SDS011;1835;50.068;8.154;2023-03-16T13:40:00;6.37;;;3.30;;
3637;SDS011;1835;50.068;8.154;2023-03-16T13:42:31;3.50;;;2.60;;
3637;SDS011;1835;50.068;8.154;2023-03-16T13:45:06;9.00;;;3.60;;
3637;SDS011;1835;50.068;8.154;2023-03-16T13:47:41;5.90;;;2.90;;
3637;SDS011;1835;50.068;8.154;2023-03-16T13:50:11;5.80;;;3.23;;
3637;SDS011;1835;50.068;8.154;2023-03-16T13:52:41;9.93;;;3.10;;
3637;SDS011;1835;50.068;8.154;2023-03-16T13:55:13;4.00;;;3.20;;
3637;SDS011;1835;50.068;8.154;2023-03-16T13:57:43;3.47;;;3.07;;
3637;SDS011;1835;50.068;8.154;2023-03-16T14:00:16;3.73;;;2.80;;
3637;SDS011;1835;50.068;8.154;2023-03-16T14:02:50;2.80;;;2.10;;
3637;SDS011;1835;50.068;8.154;2023-03-16T14:05:21;2.80;;;2.60;;
3637;SDS011;1835;50.068;8.154;2023-03-16T14:07:53;6.33;;;2.57;;
3637;SDS011;1835;50.068;8.154;2023-03-16T14:10:25;3.50;;;2.87;;
3637;SDS011;1835;50.068;8.154;2023-03-16T14:13:05;4.67;;;3.27;;
3637;SDS011;1835;50.068;8.154;2023-03-16T14:15:37;4.97;;;3.30;;
3637;SDS011;1835;50.068;8.154;2023-03-16T14:18:11;5.97;;;2.90;;
3637;SDS011;1835;50.068;8.154;2023-03-16T14:20:41;4.07;;;3.70;;
3637;SDS011;1835;50.068;8.154;2023-03-16T14:23:15;4.40;;;2.87;;
3637;SDS011;1835;50.068;8.154;2023-03-16T14:25:46;6.83;;;2.67;;
3637;SDS011;1835;50.068;8.154;2023-03-16T14:28:15;2.67;;;2.20;;
3637;SDS011;1835;50.068;8.154;2023-03-16T14:30:51;2.50;;;2.30;;
3637;SDS011;1835;50.068;8.154;2023-03-16T14:33:24;2.30;;;2.10;;
3637;SDS011;1835;50.068;8.154;2023-03-16T14:35:57;2.37;;;1.93;;
3637;SDS011;1835;50.068;8.154;2023-03-16T14:38:35;3.03;;;2.13;;
3637;SDS011;1835;50.068;8.154;2023-03-16T14:41:09;5.90;;;1.83;;
3637;SDS011;1835;50.068;8.154;2023-03-16T14:43:48;3.50;;;2.00;;
3637;SDS011;1835;50.068;8.154;2023-03-16T14:46:22;10.13;;;1.53;;
3637;SDS011;1835;50.068;8.154;2023-03-16T14:48:58;2.20;;;1.77;;
3637;SDS011;1835;50.068;8.154;2023-03-16T14:51:28;7.30;;;1.70;;
3637;SDS011;1835;50.068;8.154;2023-03-16T14:53:57;1.93;;;1.80;;
3637;SDS011;1835;50.068;8.154;2023-03-16T14:56:30;9.53;;;1.70;;
3637;SDS011;1835;50.068;8.154;2023-03-16T14:59:00;3.90;;;1.30;;
3637;SDS011;1835;50.068;8.154;2023-03-16T15:01:30;3.30;;;2.40;;
3637;SDS011;1835;50.068;8.154;2023-03-16T15:03:58;2.60;;;2.40;;
3637;SDS011;1835;50.068;8.154;2023-03-16T15:06:27;2.03;;;1.93;;
3637;SDS011;1835;50.068;8.154;2023-03-16T15:08:56;3.60;;;1.87;;
3637;SDS011;1835;50.068;8.154;2023-03-16T15:11:25;1.10;;;1.10;;
3637;SDS011;1835;50.068;8.154;2023-03-16T15:13:57;1.50;;;1.40;;
3637;SDS011;1835;50.068;8.154;2023-03-16T15:16:41;1.40;;;1.30;;
3637;SDS011;1835;50.068;8.154;2023-03-16T15:19:09;12.43;;;1.87;;
3637;SDS011;1835;50.068;8.154;2023-03-16T15:21:37;2.50;;;1.90;;
3637;SDS011;1835;50.068;8.154;2023-03-16T15:24:07;1.47;;;1.33;;
3637;SDS011;1835;50.068;8.154;2023-03-16T15:26:37;2.10;;;1.63;;
3637;SDS011;1835;50.068;8.154;2023-03-16T15:29:05;2.40;;;2.10;;
3637;SDS011;1835;50.068;8.154;2023-03-16T15:31:36;2.30;;;1.90;;
3637;SDS011;1835;50.068;8.154;2023-03-16T15:34:06;13.13;;;1.83;;
3637;SDS011;1835;50.068;8.154;2023-03-16T15:36:34;2.03;;;1.93;;
3637;SDS011;1835;50.068;8.154;2023-03-16T15:39:02;2.37;;;2.27;;
3637;SDS011;1835;50.068;8.154;2023-03-16T15:41:33;14.23;;;2.30;;
3637;SDS011;1835;50.068;8.154;2023-03-16T15:44:12;13.97;;;5.70;;
3637;SDS011;1835;50.068;8.154;2023-03-16T15:46:41;6.63;;;2.63;;
3637;SDS011;1835;50.068;8.154;2023-03-16T15:49:11;6.23;;;3.43;;